KBBB/BBB METAR and TAF weather

Enter ICAO airport designator
Station Type Date Time Source
KBBB METAR 2018/10/22 17:15 UTC NOAA

KBBB 221715Z AUTO 35011G16KT 10SM CLR 13/M02 A3016 RMK AO2


Station Type Date Time Source
KBBB Decoded METAR 2018/10/22 17:15 UTC NOAA

Benson Municipal, MN, United States (KBBB) 45-19N 095-39W
Oct 22, 2018 - 01:15 PM EDT / 2018.10.22 1715 UTC
Wind: from the N (350 degrees) at 13 MPH (11 KT) gusting to 18 MPH (16 KT):0
Visibility: 10 mile(s):0
Sky conditions: clear
Temperature: 55 F (13 C)
Dew Point: 28 F (-2 C)
Relative Humidity: 35%
Pressure (altimeter): 30.16 in. Hg (1021 hPa)
ob: KBBB 221715Z AUTO 35011G16KT 10SM CLR 13/M02 A3016 RMK AO2
cycle: 17

Station Type Date Time Source
KBBB TAF UTC NOAA

Error!


Example: see airport list